Time;durP1;ratioP1;P1;durP2;ratioP2;P2;SDS_P1;SDS_P2;PMS_P1;PMS_P2;Temp;Humidity;BMP_temperature;BMP_pressure;BME280_temperature;BME280_humidity;BME280_pressure;Samples;Min_cycle;Max_cycle;Signal;HPM_P1;HPM_P2
2022/06/26 00:01:21;;;;;;;;;;;;;;;;;;5025928;28;20060;-82
2022/06/26 00:03:47;;;;;;;21.88;14.63;;;;;;;;;;5026571;28;19921;-79
2022/06/26 00:06:13;;;;;;;22.42;15.55;;;;;;;;;;5026089;28;20064;-80
2022/06/26 00:08:39;;;;;;;20.83;15.85;;;;;;;;;;5024500;28;20088;-81
2022/06/26 00:11:05;;;;;;;19.50;15.13;;;;;;;;;;5027853;28;20049;-81
2022/06/26 00:13:32;;;;;;;24.40;15.10;;;;;;;;;;5026496;28;20041;-80
2022/06/26 00:15:58;;;;;;;20.33;15.38;;;;;;;;;;5028269;28;20045;-80
2022/06/26 00:18:24;;;;;;;;;;;;;;;;;;5026553;28;20099;-80
2022/06/26 00:20:50;;;;;;;21.63;14.98;;;;;;;;;;5025507;28;20020;-80
2022/06/26 00:23:16;;;;;;;27.33;14.90;;;;;;;;;;5027716;28;20045;-79
2022/06/26 00:25:42;;;;;;;;;;;;;;;;;;5025813;28;20049;-79
2022/06/26 00:28:08;;;;;;;24.05;15.85;;;;;;;;;;5024241;28;19932;-82
2022/06/26 00:30:34;;;;;;;21.10;16.42;;;;;;;;;;5027906;28;20059;-80
2022/06/26 00:33:00;;;;;;;20.48;14.88;;;;;;;;;;5025995;28;20366;-80
2022/06/26 00:35:26;;;;;;;22.27;16.02;;;;;;;;;;5027354;28;20191;-80
2022/06/26 00:37:52;;;;;;;21.63;15.05;;;;;;;;;;5024912;28;20076;-80
2022/06/26 00:40:18;;;;;;;24.00;16.95;;;;;;;;;;5027076;28;20053;-83
2022/06/26 00:42:44;;;;;;;;;;;;;;;;;;5024619;28;20065;-80
2022/06/26 00:45:11;;;;;;;23.63;17.10;;;;;;;;;;5024304;28;19921;-81
2022/06/26 00:47:37;;;;;;;26.50;16.73;;;;;;;;;;5026043;28;20055;-80
2022/06/26 00:50:05;;;;;;;;;;;;;;;;;;5021903;28;20319;-80
2022/06/26 00:52:32;;;;;;;24.30;18.50;;;;;;;;;;5016317;28;19939;-80
2022/06/26 00:54:58;;;;;;;23.55;17.55;;;;;;;;;;5026123;28;20045;-81
2022/06/26 00:57:24;;;;;;;22.30;16.70;;;;;;;;;;5029127;28;20061;-80
2022/06/26 00:59:50;;;;;;;;;;;;;;;;;;5029767;28;20056;-81
2022/06/26 01:02:17;;;;;;;24.95;17.77;;;;;;;;;;5031470;28;20032;-81
2022/06/26 01:04:43;;;;;;;25.90;18.90;;;;;;;;;;5029436;28;20124;-79
2022/06/26 01:07:10;;;;;;;;;;;;;;;;;;5030952;28;20119;-80
2022/06/26 01:09:36;;;;;;;24.85;18.58;;;;;;;;;;5029167;28;19924;-81
2022/06/26 01:12:02;;;;;;;;;;;;;;;;;;5028482;28;20071;-77
2022/06/26 01:14:29;;;;;;;26.65;21.02;;;;;;;;;;5029896;28;19936;-73
2022/06/26 01:16:55;;;;;;;34.20;23.70;;;;;;;;;;5028945;28;20441;-69
2022/06/26 01:19:21;;;;;;;;;;;;;;;;;;5029501;28;20497;-77
2022/06/26 01:21:47;;;;;;;28.20;22.70;;;;;;;;;;5029393;28;19921;-72
2022/06/26 01:24:14;;;;;;;33.45;24.92;;;;;;;;;;5030135;28;20136;-77
2022/06/26 01:26:41;;;;;;;33.15;24.70;;;;;;;;;;5029427;28;20114;-83
2022/06/26 01:29:07;;;;;;;29.05;22.63;;;;;;;;;;5027877;28;20064;-73
2022/06/26 01:31:34;;;;;;;;;;;;;;;;;;5030462;28;20054;-75
2022/06/26 01:34:00;;;;;;;33.72;23.70;;;;;;;;;;5029081;28;20000;-77
2022/06/26 01:36:26;;;;;;;35.17;23.50;;;;;;;;;;5029229;28;20053;-78
2022/06/26 01:38:52;;;;;;;30.15;23.80;;;;;;;;;;5026539;28;20064;-79
2022/06/26 01:41:18;;;;;;;31.10;23.23;;;;;;;;;;5027699;28;20100;-79
2022/06/26 01:43:44;;;;;;;;;;;;;;;;;;5044210;28;20073;-81
2022/06/26 01:46:11;;;;;;;31.05;23.50;;;;;;;;;;5030157;28;19940;-77
2022/06/26 01:48:37;;;;;;;;;;;;;;;;;;5029569;28;20056;-78
2022/06/26 01:51:04;;;;;;;29.87;21.70;;;;;;;;;;5030270;28;20462;-77
2022/06/26 01:53:30;;;;;;;31.45;20.95;;;;;;;;;;5030643;28;20361;-79
2022/06/26 01:55:56;;;;;;;28.60;21.27;;;;;;;;;;5026474;28;20085;-77
2022/06/26 01:58:22;;;;;;;;;;;;;;;;;;5030391;28;20061;-76
2022/06/26 02:00:50;;;;;;;29.27;21.30;;;;;;;;;;5028516;28;19925;-79
2022/06/26 02:03:16;;;;;;;31.92;21.13;;;;;;;;;;5030502;28;20057;-77
2022/06/26 02:05:42;;;;;;;33.63;20.55;;;;;;;;;;5028391;28;20132;-77
2022/06/26 02:08:08;;;;;;;;;;;;;;;;;;5027721;28;20049;-78
2022/06/26 02:16:18;;;;;;;30.33;18.20;;;;;;;;;;5025582;28;20052;-80
2022/06/26 02:18:46;;;;;;;27.33;17.90;;;;;;;;;;5027388;28;20541;-81
2022/06/26 02:21:13;;;;;;;24.85;17.00;;;;;;;;;;5028995;28;20057;-80
2022/06/26 02:23:39;;;;;;;25.77;17.17;;;;;;;;;;5028701;28;20091;-80
2022/06/26 02:26:09;;;;;;;24.27;16.75;;;;;;;;;;5028097;28;20146;-79
2022/06/26 02:28:36;;;;;;;25.52;15.77;;;;;;;;;;5028247;28;20099;-79
2022/06/26 02:31:03;;;;;;;26.35;16.33;;;;;;;;;;5027200;28;20119;-82
2022/06/26 02:33:32;;;;;;;23.00;16.15;;;;;;;;;;5028312;28;20068;-81
2022/06/26 02:35:58;;;;;;;33.38;17.02;;;;;;;;;;5025659;28;20045;-80
2022/06/26 02:38:24;;;;;;;;;;;;;;;;;;5029919;28;20053;-79
2022/06/26 02:40:50;;;;;;;26.05;16.50;;;;;;;;;;5028359;28;20314;-77
2022/06/26 02:43:18;;;;;;;26.63;16.67;;;;;;;;;;5028339;28;20478;-77
2022/06/26 02:45:45;;;;;;;28.67;17.17;;;;;;;;;;5027964;28;20103;-76
2022/06/26 02:48:14;;;;;;;32.10;18.75;;;;;;;;;;5026485;28;20207;-73
2022/06/26 02:50:40;;;;;;;37.75;21.83;;;;;;;;;;5028193;28;20096;-72
2022/06/26 02:53:06;;;;;;;;;;;;;;;;;;5027330;28;20045;-71
2022/06/26 02:55:32;;;;;;;32.80;21.73;;;;;;;;;;5027834;28;19986;-71
2022/06/26 02:57:58;;;;;;;;;;;;;;;;;;5026474;28;20045;-72
2022/06/26 03:00:24;;;;;;;32.95;21.02;;;;;;;;;;5028560;28;19921;-69
2022/06/26 03:02:51;;;;;;;29.33;17.95;;;;;;;;;;5028467;28;20469;-72
2022/06/26 03:05:17;;;;;;;23.52;15.40;;;;;;;;;;5027215;28;20199;-73
2022/06/26 03:07:43;;;;;;;;;;;;;;;;;;5028724;28;20171;-73
2022/06/26 03:10:09;;;;;;;22.05;15.23;;;;;;;;;;5027138;28;20020;-73
2022/06/26 03:12:35;;;;;;;;;;;;;;;;;;5027112;28;20188;-72
2022/06/26 03:15:02;;;;;;;22.48;14.20;;;;;;;;;;5026336;28;20008;-73
2022/06/26 03:17:28;;;;;;;23.30;14.68;;;;;;;;;;5028665;28;20490;-72
2022/06/26 03:19:54;;;;;;;24.33;15.73;;;;;;;;;;5027312;28;20065;-73
2022/06/26 03:22:21;;;;;;;26.40;14.60;;;;;;;;;;5026877;28;20136;-72
2022/06/26 03:24:47;;;;;;;19.40;12.85;;;;;;;;;;5026082;28;20053;-72
2022/06/26 03:27:13;;;;;;;20.23;13.55;;;;;;;;;;5028121;28;20053;-72
2022/06/26 03:29:39;;;;;;;22.35;13.18;;;;;;;;;;5026316;28;20130;-72
2022/06/26 03:32:05;;;;;;;22.20;12.68;;;;;;;;;;5028410;28;20131;-72
2022/06/26 03:34:31;;;;;;;;;;;;;;;;;;5026974;28;20473;-72
2022/06/26 03:36:57;;;;;;;21.33;13.73;;;;;;;;;;5024863;28;20007;-72
2022/06/26 03:39:23;;;;;;;18.13;12.20;;;;;;;;;;5027169;28;20056;-71
2022/06/26 03:42:00;;;;;;;19.58;12.40;;;;;;;;;;5027085;28;20041;-71
2022/06/26 03:44:26;;;;;;;;;;;;;;;;;;5023509;28;20069;-71
2022/06/26 03:46:52;;;;;;;18.48;10.98;;;;;;;;;;5025499;28;19927;-71
2022/06/26 03:49:18;;;;;;;;;;;;;;;;;;5025743;28;20680;-71
2022/06/26 03:51:44;;;;;;;15.90;10.32;;;;;;;;;;5026357;28;20056;-71
2022/06/26 03:54:10;;;;;;;17.92;9.65;;;;;;;;;;5025379;28;20068;-72
2022/06/26 03:56:37;;;;;;;18.55;9.57;;;;;;;;;;5024714;28;20129;-71
2022/06/26 03:59:03;;;;;;;15.52;8.35;;;;;;;;;;5026846;28;20064;-71
2022/06/26 04:01:29;;;;;;;;;;;;;;;;;;5026971;28;20158;-72
2022/06/26 04:03:55;;;;;;;13.00;7.93;;;;;;;;;;5027060;28;20309;-72
2022/06/26 04:06:21;;;;;;;14.13;8.30;;;;;;;;;;5024287;28;20045;-72
2022/06/26 04:08:47;;;;;;;14.80;8.32;;;;;;;;;;5027446;28;20041;-72
2022/06/26 04:11:14;;;;;;;18.50;9.27;;;;;;;;;;5025520;28;20065;-73
2022/06/26 04:13:40;;;;;;;15.45;8.93;;;;;;;;;;5026776;28;20123;-74
2022/06/26 04:16:06;;;;;;;;;;;;;;;;;;5024674;28;20438;-75
2022/06/26 04:18:32;;;;;;;14.18;8.60;;;;;;;;;;5025768;28;19928;-73
2022/06/26 04:20:58;;;;;;;14.52;8.73;;;;;;;;;;5025520;28;20491;-75
2022/06/26 04:23:24;;;;;;;17.35;8.95;;;;;;;;;;5026862;28;20854;-74
2022/06/26 04:25:50;;;;;;;15.63;8.68;;;;;;;;;;5024702;28;20042;-73
2022/06/26 04:28:16;;;;;;;12.75;8.27;;;;;;;;;;5024252;28;20516;-73
2022/06/26 04:30:43;;;;;;;17.25;8.40;;;;;;;;;;5026163;28;20045;-72
2022/06/26 04:33:09;;;;;;;;;;;;;;;;;;5028978;28;20091;-75
2022/06/26 04:35:35;;;;;;;15.52;8.90;;;;;;;;;;5028841;28;20010;-74
2022/06/26 04:38:01;;;;;;;;;;;;;;;;;;5029918;28;20073;-74
2022/06/26 04:40:27;;;;;;;14.48;8.18;;;;;;;;;;5028594;28;20461;-73
2022/06/26 04:42:53;;;;;;;;;;;;;;;;;;5028386;28;20081;-74
2022/06/26 04:45:19;;;;;;;15.27;7.95;;;;;;;;;;5029054;28;19920;-74
2022/06/26 04:47:45;;;;;;;14.18;7.60;;;;;;;;;;5028201;28;20116;-73
2022/06/26 04:50:11;;;;;;;13.57;8.07;;;;;;;;;;5028341;28;20458;-71
2022/06/26 04:52:38;;;;;;;16.15;7.95;;;;;;;;;;5029275;28;20219;-74
2022/06/26 04:55:03;;;;;;;;;;;;;;;;;;5030476;28;20168;-74
2022/06/26 04:57:29;;;;;;;15.13;8.57;;;;;;;;;;5027445;28;20437;-73
2022/06/26 04:59:56;;;;;;;16.65;8.43;;;;;;;;;;5029249;28;20058;-74
2022/06/26 05:02:22;;;;;;;13.05;7.78;;;;;;;;;;5027089;28;21905;-74
2022/06/26 05:04:48;;;;;;;15.82;8.85;;;;;;;;;;5030138;28;20120;-73
2022/06/26 05:07:14;;;;;;;;;;;;;;;;;;5027248;28;20063;-74
2022/06/26 05:09:40;;;;;;;15.93;7.85;;;;;;;;;;5029277;28;20354;-75
2022/06/26 05:12:06;;;;;;;;;;;;;;;;;;5030004;28;20053;-74
2022/06/26 05:14:32;;;;;;;14.32;8.60;;;;;;;;;;5029829;28;19950;-72
2022/06/26 05:16:58;;;;;;;13.90;8.35;;;;;;;;;;5028573;28;20456;-72
2022/06/26 05:19:24;;;;;;;14.23;8.73;;;;;;;;;;5029270;28;20048;-72
2022/06/26 05:21:52;;;;;;;15.55;8.45;;;;;;;;;;5028965;28;20041;-72
2022/06/26 05:24:19;;;;;;;16.58;9.18;;;;;;;;;;5028989;28;20492;-72
2022/06/26 05:26:45;;;;;;;17.05;9.65;;;;;;;;;;5028773;28;20045;-73
2022/06/26 05:29:11;;;;;;;14.98;8.60;;;;;;;;;;5026804;28;20142;-76
2022/06/26 05:31:37;;;;;;;18.35;9.48;;;;;;;;;;5028516;28;20093;-72
2022/06/26 05:34:04;;;;;;;14.25;8.82;;;;;;;;;;5027992;28;20037;-75
2022/06/26 05:36:30;;;;;;;16.88;9.40;;;;;;;;;;5028071;28;20147;-72
2022/06/26 05:38:56;;;;;;;14.68;8.70;;;;;;;;;;5026848;28;20045;-75
2022/06/26 05:41:22;;;;;;;17.65;9.23;;;;;;;;;;5028668;28;20102;-74
2022/06/26 05:43:48;;;;;;;17.08;9.70;;;;;;;;;;5026888;28;20057;-73
2022/06/26 05:46:14;;;;;;;15.82;9.70;;;;;;;;;;5026249;28;20068;-77
2022/06/26 05:48:40;;;;;;;;;;;;;;;;;;5027820;28;20354;-72
2022/06/26 05:51:06;;;;;;;23.27;10.82;;;;;;;;;;5029171;28;19936;-73
2022/06/26 05:53:32;;;;;;;16.92;10.40;;;;;;;;;;5026622;28;20052;-79
2022/06/26 05:55:58;;;;;;;16.88;10.55;;;;;;;;;;5027937;28;20041;-75
2022/06/26 05:58:24;;;;;;;20.33;11.88;;;;;;;;;;5027642;28;20056;-74
2022/06/26 06:00:50;;;;;;;20.67;11.35;;;;;;;;;;5026884;28;20417;-74
2022/06/26 06:03:16;;;;;;;18.52;12.25;;;;;;;;;;5026355;28;20050;-77
2022/06/26 06:05:42;;;;;;;22.17;13.32;;;;;;;;;;5027217;28;20124;-75
2022/06/26 06:08:08;;;;;;;20.55;13.23;;;;;;;;;;5025432;28;20095;-74
2022/06/26 06:10:36;;;;;;;;;;;;;;;;;;5026853;28;20128;-74
2022/06/26 06:13:02;;;;;;;24.25;14.07;;;;;;;;;;5026070;28;19927;-76
2022/06/26 06:15:28;;;;;;;20.95;14.18;;;;;;;;;;5025250;28;20048;-74
2022/06/26 06:17:54;;;;;;;20.95;13.95;;;;;;;;;;5026551;28;20125;-75
2022/06/26 06:20:24;;;;;;;24.08;15.82;;;;;;;;;;5026137;28;20096;-75
2022/06/26 06:22:54;;;;;;;23.60;14.63;;;;;;;;;;5027824;28;20049;-75
2022/06/26 06:25:23;;;;;;;21.67;14.40;;;;;;;;;;5028136;28;20112;-83
2022/06/26 06:27:50;;;;;;;24.05;15.68;;;;;;;;;;5026706;28;20386;-78
2022/06/26 06:30:16;;;;;;;23.67;15.77;;;;;;;;;;5027010;28;20176;-76
2022/06/26 06:32:42;;;;;;;26.30;17.48;;;;;;;;;;5025766;28;20050;-77
2022/06/26 06:35:11;;;;;;;22.50;16.67;;;;;;;;;;5026915;28;20076;-76
2022/06/26 06:37:38;;;;;;;27.17;17.75;;;;;;;;;;5035070;28;20068;-76
2022/06/26 06:40:04;;;;;;;29.73;19.33;;;;;;;;;;5024446;28;20187;-77
2022/06/26 06:42:30;;;;;;;30.83;20.25;;;;;;;;;;5026096;28;20164;-78
2022/06/26 06:44:56;;;;;;;;;;;;;;;;;;5027271;28;20063;-74
2022/06/26 06:47:22;;;;;;;30.45;19.45;;;;;;;;;;5034938;28;20001;-81
2022/06/26 06:49:48;;;;;;;28.23;20.10;;;;;;;;;;5017420;28;20345;-71
2022/06/26 06:52:14;;;;;;;32.03;21.55;;;;;;;;;;5026741;28;20400;-75
2022/06/26 06:54:40;;;;;;;;;;;;;;;;;;5025205;28;20056;-72
2022/06/26 06:57:06;;;;;;;29.13;20.50;;;;;;;;;;5025851;28;20016;-73
2022/06/26 06:59:33;;;;;;;28.80;21.73;;;;;;;;;;5026215;28;20053;-72
2022/06/26 07:01:59;;;;;;;33.60;22.73;;;;;;;;;;5027647;28;20053;-71
2022/06/26 07:04:25;;;;;;;30.48;23.60;;;;;;;;;;5027367;28;20049;-72
2022/06/26 07:06:51;;;;;;;32.92;22.98;;;;;;;;;;5025710;28;20060;-71
2022/06/26 07:09:17;;;;;;;33.05;23.67;;;;;;;;;;5025220;28;20045;-79
2022/06/26 07:11:43;;;;;;;33.45;24.52;;;;;;;;;;5025264;28;20180;-84
2022/06/26 07:14:09;;;;;;;36.22;24.50;;;;;;;;;;5027941;28;20199;-85
2022/06/26 07:16:35;;;;;;;34.58;25.83;;;;;;;;;;5026399;28;20084;-87
2022/06/26 07:19:01;;;;;;;;;;;;;;;;;;5024223;28;20089;-79
2022/06/26 07:21:27;;;;;;;35.83;26.20;;;;;;;;;;5026195;28;19921;-77
2022/06/26 07:23:53;;;;;;;33.90;25.30;;;;;;;;;;5025285;28;20042;-84
2022/06/26 07:26:19;;;;;;;33.38;24.00;;;;;;;;;;5027822;28;20136;-85
2022/06/26 07:28:45;;;;;;;36.50;26.75;;;;;;;;;;5023296;28;20049;-87
2022/06/26 07:31:11;;;;;;;33.67;24.73;;;;;;;;;;5024545;28;20065;-91
2022/06/26 07:36:22;;;;;;;36.33;25.60;;;;;;;;;;5027626;28;20053;-80
2022/06/26 07:38:48;;;;;;;38.63;26.88;;;;;;;;;;5022406;28;20045;-76
2022/06/26 07:41:14;;;;;;;36.83;28.20;;;;;;;;;;5027240;28;20090;-75
2022/06/26 07:43:40;;;;;;;38.92;29.20;;;;;;;;;;5024326;28;20067;-78
2022/06/26 07:46:06;;;;;;;37.75;28.02;;;;;;;;;;5024498;28;20446;-77
2022/06/26 07:48:33;;;;;;;;;;;;;;;;;;5024676;28;20041;-72
2022/06/26 07:50:59;;;;;;;41.87;29.57;;;;;;;;;;5026179;28;19921;-75
2022/06/26 07:53:25;;;;;;;41.70;28.65;;;;;;;;;;5025361;28;20386;-78
2022/06/26 07:55:51;;;;;;;;;;;;;;;;;;5021115;28;20126;-81
2022/06/26 07:58:17;;;;;;;37.45;25.30;;;;;;;;;;5024346;28;20107;-72
2022/06/26 08:00:43;;;;;;;33.58;24.85;;;;;;;;;;5024083;28;20114;-76
2022/06/26 08:03:10;;;;;;;34.28;25.30;;;;;;;;;;5022640;28;20060;-76
2022/06/26 08:05:37;;;;;;;33.22;24.52;;;;;;;;;;5024790;28;20144;-74
2022/06/26 08:08:04;;;;;;;29.48;21.85;;;;;;;;;;5023423;28;20110;-72
2022/06/26 08:10:30;;;;;;;27.83;17.58;;;;;;;;;;5024600;28;20059;-72
2022/06/26 08:12:56;;;;;;;25.50;19.25;;;;;;;;;;5024815;28;20128;-75
2022/06/26 08:15:23;;;;;;;23.70;17.23;;;;;;;;;;5023791;28;20118;-74
2022/06/26 08:17:49;;;;;;;23.25;15.45;;;;;;;;;;5022135;28;20362;-75
2022/06/26 08:20:15;;;;;;;;;;;;;;;;;;5026932;28;20454;-73
2022/06/26 08:22:41;;;;;;;24.70;17.50;;;;;;;;;;5024846;28;19937;-76
2022/06/26 08:25:07;;;;;;;;;;;;;;;;;;5025585;28;20042;-79
2022/06/26 08:27:33;;;;;;;23.85;16.42;;;;;;;;;;5020821;28;20024;-82
2022/06/26 08:29:59;;;;;;;27.83;16.67;;;;;;;;;;5020333;28;20045;-76
2022/06/26 08:32:25;;;;;;;;;;;;;;;;;;5024144;28;20050;-78
2022/06/26 08:34:51;;;;;;;25.13;15.80;;;;;;;;;;5022993;28;19943;-83
2022/06/26 08:37:20;;;;;;;23.95;14.23;;;;;;;;;;5021959;28;20473;-77
2022/06/26 08:39:46;;;;;;;20.75;14.10;;;;;;;;;;5022955;28;20477;-81
2022/06/26 08:42:12;;;;;;;23.35;15.60;;;;;;;;;;5025084;28;20077;-77
2022/06/26 08:44:46;;;;;;;21.27;14.73;;;;;;;;;;5025448;28;20171;-82
2022/06/26 08:47:14;;;;;;;21.33;14.90;;;;;;;;;;5021930;28;20060;-77
2022/06/26 08:49:41;;;;;;;21.58;13.32;;;;;;;;;;5021481;28;20070;-80
2022/06/26 08:52:10;;;;;;;17.52;11.18;;;;;;;;;;5024177;28;20119;-77
2022/06/26 08:54:36;;;;;;;19.05;9.50;;;;;;;;;;5023947;28;20119;-75
2022/06/26 08:57:02;;;;;;;;;;;;;;;;;;5026031;28;20049;-76
2022/06/26 08:59:30;;;;;;;16.27;9.77;;;;;;;;;;5023630;28;20042;-85
2022/06/26 09:01:56;;;;;;;18.63;10.70;;;;;;;;;;5021662;28;20315;-78
2022/06/26 09:04:22;;;;;;;;;;;;;;;;;;5026016;28;20037;-76
2022/06/26 09:06:48;;;;;;;17.40;11.82;;;;;;;;;;5019096;28;19925;-77
2022/06/26 09:09:14;;;;;;;17.50;10.88;;;;;;;;;;5023421;28;20088;-71
2022/06/26 09:11:40;;;;;;;17.55;10.23;;;;;;;;;;5032373;28;20064;-71
2022/06/26 09:14:06;;;;;;;22.25;10.13;;;;;;;;;;5027658;28;20032;-76
2022/06/26 09:16:32;;;;;;;;;;;;;;;;;;5051398;28;20144;-75
2022/06/26 09:19:08;;;;;;;17.95;9.85;;;;;;;;;;5035106;28;19920;-77
2022/06/26 09:21:34;;;;;;;17.48;8.90;;;;;;;;;;5049459;28;20114;-83
2022/06/26 09:24:00;;;;;;;;;;;;;;;;;;5032743;28;20394;-75
2022/06/26 09:26:26;;;;;;;15.82;8.27;;;;;;;;;;5031096;28;19948;-81
2022/06/26 09:28:52;;;;;;;;;;;;;;;;;;5038322;28;20191;-84
2022/06/26 09:31:21;;;;;;;14.27;8.02;;;;;;;;;;5035174;28;20028;-83
2022/06/26 09:33:47;;;;;;;14.60;9.10;;;;;;;;;;5034407;28;20190;-84
2022/06/26 09:36:14;;;;;;;;;;;;;;;;;;5033388;28;20053;-76
2022/06/26 09:38:40;;;;;;;12.52;5.35;;;;;;;;;;5048085;28;19932;-73
2022/06/26 09:41:06;;;;;;;;;;;;;;;;;;5028645;28;20195;-80
2022/06/26 09:43:33;;;;;;;12.88;5.63;;;;;;;;;;5029244;28;19960;-84
2022/06/26 09:46:00;;;;;;;10.98;5.63;;;;;;;;;;5017403;28;20080;-81
2022/06/26 09:48:27;;;;;;;11.43;5.75;;;;;;;;;;5027575;28;20046;-80
2022/06/26 09:50:53;;;;;;;11.25;6.13;;;;;;;;;;5022274;28;20048;-79
2022/06/26 09:53:20;;;;;;;10.95;6.07;;;;;;;;;;5026488;28;20136;-79
2022/06/26 09:55:47;;;;;;;10.43;5.75;;;;;;;;;;5027309;28;20132;-86
2022/06/26 09:58:14;;;;;;;14.00;6.72;;;;;;;;;;5027610;28;20140;-81
2022/06/26 10:00:40;;;;;;;13.18;6.10;;;;;;;;;;5026893;28;20350;-83
2022/06/26 10:08:40;;;;;;;11.55;5.95;;;;;;;;;;5007726;28;20049;-86
2022/06/26 10:11:06;;;;;;;12.57;5.25;;;;;;;;;;5032511;28;20057;-86
2022/06/26 10:13:35;;;;;;;10.30;5.30;;;;;;;;;;5027156;28;20049;-82
2022/06/26 10:16:01;;;;;;;11.70;5.30;;;;;;;;;;5026667;28;20041;-79
2022/06/26 10:18:26;;;;;;;;;;;;;;;;;;5027337;28;20049;-79
2022/06/26 10:20:55;;;;;;;13.85;5.75;;;;;;;;;;5026152;28;20328;-77
2022/06/26 10:23:31;;;;;;;10.52;5.00;;;;;;;;;;5026297;28;20128;-81
2022/06/26 10:25:57;;;;;;;11.70;4.47;;;;;;;;;;5011830;28;20112;-68
2022/06/26 10:28:23;;;;;;;;;;;;;;;;;;5027080;28;20041;-79
2022/06/26 10:30:49;;;;;;;10.63;5.35;;;;;;;;;;5027638;28;20276;-80
2022/06/26 10:33:17;;;;;;;;;;;;;;;;;;5028587;28;20058;-73
2022/06/26 10:35:47;;;;;;;11.80;5.85;;;;;;;;;;5014186;28;19921;-72
2022/06/26 10:38:24;;;;;;;11.27;5.50;;;;;;;;;;5024607;28;20129;-82
2022/06/26 10:43:48;;;;;;;11.10;5.30;;;;;;;;;;5020035;28;20355;-83
2022/06/26 10:46:14;;;;;;;10.15;4.38;;;;;;;;;;5010316;28;20054;-81
2022/06/26 10:48:40;;;;;;;;;;;;;;;;;;5025875;28;20131;-79
2022/06/26 10:51:06;;;;;;;9.82;4.13;;;;;;;;;;5031747;28;19929;-81
2022/06/26 10:53:39;;;;;;;11.15;4.88;;;;;;;;;;5026197;28;20132;-82
2022/06/26 10:56:07;;;;;;;10.05;4.72;;;;;;;;;;5021493;28;20118;-82
2022/06/26 10:58:38;;;;;;;13.63;5.00;;;;;;;;;;5026686;28;20049;-80
2022/06/26 11:01:05;;;;;;;13.98;5.75;;;;;;;;;;5025100;28;20049;-80
2022/06/26 11:03:31;;;;;;;12.38;5.18;;;;;;;;;;5024681;28;20045;-74
2022/06/26 11:06:05;;;;;;;11.38;4.47;;;;;;;;;;5042149;28;20045;-79
2022/06/26 11:08:33;;;;;;;11.98;4.70;;;;;;;;;;5011218;28;20041;-76
2022/06/26 11:11:06;;;;;;;12.02;4.53;;;;;;;;;;5026479;28;20057;-78
2022/06/26 11:13:34;;;;;;;9.40;5.03;;;;;;;;;;5017893;28;20049;-76
2022/06/26 11:16:00;;;;;;;10.45;4.38;;;;;;;;;;5022895;28;20077;-75
2022/06/26 11:18:32;;;;;;;10.02;4.00;;;;;;;;;;5025103;28;20053;-73
2022/06/26 11:20:58;;;;;;;10.07;4.80;;;;;;;;;;5026183;28;20092;-76
2022/06/26 11:23:24;;;;;;;;;;;;;;;;;;5024786;28;20107;-80
2022/06/26 11:25:53;;;;;;;12.05;5.55;;;;;;;;;;5025765;28;19996;-86
2022/06/26 11:28:19;;;;;;;10.38;4.97;;;;;;;;;;5024999;28;20053;-75
2022/06/26 11:30:45;;;;;;;;;;;;;;;;;;5041823;28;20046;-85
2022/06/26 11:33:11;;;;;;;15.80;5.82;;;;;;;;;;5026272;28;19958;-76
2022/06/26 11:35:37;;;;;;;11.30;4.40;;;;;;;;;;5026729;28;20056;-82
2022/06/26 11:38:14;;;;;;;9.52;4.40;;;;;;;;;;5025796;28;20366;-82
2022/06/26 11:40:40;;;;;;;;;;;;;;;;;;5022425;28;20114;-77
2022/06/26 11:43:06;;;;;;;11.43;4.18;;;;;;;;;;5023708;28;19925;-87
2022/06/26 11:45:33;;;;;;;12.57;5.18;;;;;;;;;;5025178;28;20079;-88
2022/06/26 11:48:00;;;;;;;10.00;4.35;;;;;;;;;;5024248;28;20125;-75
2022/06/26 11:50:29;;;;;;;10.85;4.40;;;;;;;;;;5024889;28;20060;-81
2022/06/26 11:52:56;;;;;;;9.30;4.15;;;;;;;;;;5024279;28;20362;-81
2022/06/26 11:55:23;;;;;;;11.38;4.00;;;;;;;;;;5025511;28;20148;-79
2022/06/26 11:57:49;;;;;;;10.05;3.60;;;;;;;;;;5024975;28;20099;-81
2022/06/26 12:00:18;;;;;;;11.68;3.80;;;;;;;;;;5023071;28;20060;-80
2022/06/26 12:02:45;;;;;;;8.93;3.65;;;;;;;;;;5025779;28;20061;-82
2022/06/26 12:05:11;;;;;;;10.50;3.50;;;;;;;;;;5024950;28;20041;-75
2022/06/26 12:07:41;;;;;;;9.05;3.67;;;;;;;;;;5025343;28;20382;-81
2022/06/26 12:10:07;;;;;;;12.52;3.70;;;;;;;;;;5025276;28;20474;-81
2022/06/26 12:12:34;;;;;;;12.77;4.30;;;;;;;;;;5023091;28;20417;-83
2022/06/26 12:15:00;;;;;;;;;;;;;;;;;;5026941;28;20550;-82
2022/06/26 12:17:27;;;;;;;10.38;3.95;;;;;;;;;;5023019;28;19933;-82
2022/06/26 12:19:53;;;;;;;12.60;4.78;;;;;;;;;;5023093;28;20450;-80
2022/06/26 12:22:29;;;;;;;11.15;3.97;;;;;;;;;;5007333;28;20080;-82
2022/06/26 12:24:56;;;;;;;11.38;4.10;;;;;;;;;;5026213;28;20084;-81
2022/06/26 12:27:33;;;;;;;11.60;4.10;;;;;;;;;;5024331;28;20049;-84
2022/06/26 12:29:59;;;;;;;10.20;3.70;;;;;;;;;;5023987;28;20068;-81
2022/06/26 12:32:25;;;;;;;9.40;4.13;;;;;;;;;;5025317;28;20523;-82
2022/06/26 12:34:51;;;;;;;;;;;;;;;;;;5028333;28;20045;-81
2022/06/26 12:37:17;;;;;;;10.15;3.85;;;;;;;;;;5024346;28;19928;-81
2022/06/26 12:39:43;;;;;;;;;;;;;;;;;;5024101;28;20056;-83
2022/06/26 12:42:09;;;;;;;10.35;3.90;;;;;;;;;;5025118;28;20005;-81
2022/06/26 12:44:39;;;;;;;11.52;4.30;;;;;;;;;;5025448;28;20068;-86
2022/06/26 12:47:05;;;;;;;11.27;4.38;;;;;;;;;;5025444;28;20101;-79
2022/06/26 12:49:31;;;;;;;12.52;4.22;;;;;;;;;;5023890;28;20120;-81
2022/06/26 12:51:57;;;;;;;;;;;;;;;;;;5024976;28;20154;-81
2022/06/26 12:54:23;;;;;;;10.60;4.00;;;;;;;;;;5026580;28;20369;-83
2022/06/26 12:56:52;;;;;;;17.20;3.92;;;;;;;;;;5029310;28;20068;-77
2022/06/26 12:59:18;;;;;;;;;;;;;;;;;;5027590;28;20049;-81
2022/06/26 13:01:44;;;;;;;11.27;3.95;;;;;;;;;;5025986;28;19921;-86
2022/06/26 13:04:10;;;;;;;;;;;;;;;;;;5027738;28;20120;-80
2022/06/26 13:06:36;;;;;;;12.35;3.90;;;;;;;;;;5026985;28;19925;-78
2022/06/26 13:09:02;;;;;;;10.63;4.07;;;;;;;;;;5025589;28;20038;-88
2022/06/26 13:11:29;;;;;;;;;;;;;;;;;;5029140;28;20164;-75
2022/06/26 13:13:55;;;;;;;9.85;3.42;;;;;;;;;;5027816;28;19944;-85
2022/06/26 13:16:21;;;;;;;10.13;3.78;;;;;;;;;;5028583;28;20049;-87
2022/06/26 13:18:47;;;;;;;;;;;;;;;;;;5029262;28;20481;-81
2022/06/26 13:21:13;;;;;;;8.95;3.10;;;;;;;;;;5027123;28;19964;-80
2022/06/26 13:23:39;;;;;;;;;;;;;;;;;;5028815;28;20124;-81
2022/06/26 13:26:05;;;;;;;11.02;3.53;;;;;;;;;;5028905;28;20006;-80
2022/06/26 13:28:31;;;;;;;;;;;;;;;;;;5027040;28;20119;-79
2022/06/26 13:30:57;;;;;;;11.95;3.60;;;;;;;;;;5025748;28;19921;-83
2022/06/26 13:33:23;;;;;;;;;;;;;;;;;;5026619;28;20124;-86
2022/06/26 13:35:50;;;;;;;9.40;3.42;;;;;;;;;;5028980;28;20341;-81
2022/06/26 13:38:16;;;;;;;10.65;4.00;;;;;;;;;;5027514;28;20075;-82
2022/06/26 13:40:42;;;;;;;;;;;;;;;;;;5025812;28;20135;-82
2022/06/26 13:43:08;;;;;;;10.00;3.60;;;;;;;;;;5025295;28;20392;-83
2022/06/26 13:45:34;;;;;;;11.75;4.15;;;;;;;;;;5027087;28;20058;-79
2022/06/26 13:48:00;;;;;;;;;;;;;;;;;;5028237;28;20041;-83
2022/06/26 13:50:26;;;;;;;10.18;4.00;;;;;;;;;;5026312;28;20035;-84
2022/06/26 13:52:52;;;;;;;12.73;3.90;;;;;;;;;;5026293;28;20053;-85
2022/06/26 13:55:18;;;;;;;;;;;;;;;;;;5025965;28;20457;-83
2022/06/26 13:57:44;;;;;;;11.98;4.43;;;;;;;;;;5026815;28;19921;-87
2022/06/26 14:00:10;;;;;;;;;;;;;;;;;;5021388;28;20041;-86
2022/06/26 14:02:36;;;;;;;12.02;4.40;;;;;;;;;;5020033;28;20596;-76
2022/06/26 14:05:02;;;;;;;;;;;;;;;;;;5020083;28;20041;-69
2022/06/26 14:07:28;;;;;;;10.68;4.22;;;;;;;;;;5018964;28;19936;-70
2022/06/26 14:09:54;;;;;;;9.85;4.22;;;;;;;;;;5026603;28;20117;-71
2022/06/26 14:12:20;;;;;;;;;;;;;;;;;;5026997;28;20045;-71
2022/06/26 14:14:47;;;;;;;10.80;4.40;;;;;;;;;;5023256;28;19930;-72
2022/06/26 14:17:12;;;;;;;;;;;;;;;;;;5023063;28;20056;-71
2022/06/26 14:19:38;;;;;;;12.02;4.60;;;;;;;;;;5021378;28;20040;-73
2022/06/26 14:27:34;;;;;;;10.93;4.45;;;;;;;;;;5025689;28;20049;-72
2022/06/26 14:30:00;;;;;;;;;;;;;;;;;;5025247;28;20132;-72
2022/06/26 14:32:26;;;;;;;11.88;4.65;;;;;;;;;;5027165;28;20020;-69
2022/06/26 14:34:52;;;;;;;;;;;;;;;;;;5026884;28;20422;-70
2022/06/26 14:37:18;;;;;;;13.67;5.00;;;;;;;;;;5026182;28;20237;-71
2022/06/26 14:39:44;;;;;;;;;;;;;;;;;;5022346;28;20049;-70
2022/06/26 14:42:10;;;;;;;13.93;4.32;;;;;;;;;;5026627;28;19921;-73
2022/06/26 14:44:36;;;;;;;;;;;;;;;;;;5024010;28;20457;-74
2022/06/26 14:47:02;;;;;;;9.68;3.95;;;;;;;;;;5040714;28;19991;-71
2022/06/26 14:49:28;;;;;;;;;;;;;;;;;;5025943;28;20064;-73
2022/06/26 14:51:54;;;;;;;11.13;4.40;;;;;;;;;;5026022;28;19924;-70
2022/06/26 14:54:20;;;;;;;;;;;;;;;;;;5008485;28;20142;-74
2022/06/26 14:56:46;;;;;;;11.27;4.53;;;;;;;;;;5023864;28;20028;-70
2022/06/26 14:59:12;;;;;;;13.95;5.03;;;;;;;;;;5025797;28;20041;-70
2022/06/26 15:01:38;;;;;;;;;;;;;;;;;;5025651;28;20046;-69
2022/06/26 15:04:04;;;;;;;12.93;4.78;;;;;;;;;;5025831;28;19921;-72
2022/06/26 15:06:31;;;;;;;12.90;4.60;;;;;;;;;;5025319;28;20442;-69
2022/06/26 15:08:57;;;;;;;11.60;4.50;;;;;;;;;;5025592;28;20140;-69